createdAt,value
2019-05-10T00:03:38.567Z,12.54
2019-05-10T00:08:47.417Z,12.40
2019-05-10T00:14:04.506Z,12.43
2019-05-10T00:19:08.864Z,12.39
2019-05-10T00:24:12.260Z,12.34
2019-05-10T00:29:15.648Z,12.37
2019-05-10T00:34:19.051Z,12.39
2019-05-10T00:39:22.448Z,12.42
2019-05-10T00:44:25.837Z,12.44
2019-05-10T00:49:29.229Z,12.37
2019-05-10T00:54:32.625Z,12.33
2019-05-10T00:59:36.009Z,12.20
2019-05-10T01:04:39.401Z,12.15
2019-05-10T01:09:42.788Z,12.05
2019-05-10T01:14:46.182Z,11.99
2019-05-10T01:19:49.567Z,12.06
2019-05-10T01:24:52.961Z,12.05
2019-05-10T01:29:56.357Z,11.94
2019-05-10T01:34:59.751Z,11.84
2019-05-10T01:40:04.457Z,11.86
2019-05-10T01:45:08.227Z,11.92
2019-05-10T01:50:11.923Z,11.90
2019-05-10T01:55:15.412Z,11.74
2019-05-10T02:00:18.972Z,11.74
2019-05-10T02:05:22.366Z,11.77
2019-05-10T02:10:25.758Z,11.78
2019-05-10T02:15:29.154Z,11.85
2019-05-10T02:20:32.786Z,11.80
2019-05-10T02:25:36.173Z,11.83
2019-05-10T02:30:39.567Z,11.87
2019-05-10T02:35:43.721Z,11.91
2019-05-10T02:40:47.125Z,11.88
2019-05-10T02:45:50.625Z,11.86
2019-05-10T02:50:54.057Z,11.84
2019-05-10T02:55:58.700Z,11.86
2019-05-10T03:01:04.078Z,11.86
2019-05-10T03:06:07.453Z,11.81
2019-05-10T03:11:13.630Z,11.79
2019-05-10T03:16:19.751Z,11.68
2019-05-10T03:21:24.081Z,11.68
2019-05-10T03:26:27.473Z,11.60
2019-05-10T03:31:30.864Z,11.51
2019-05-10T03:36:34.403Z,11.43
2019-05-10T03:41:37.791Z,11.29
2019-05-10T03:46:41.212Z,11.22
2019-05-10T03:51:44.618Z,11.20
2019-05-10T03:56:48.014Z,11.21
2019-05-10T04:01:51.394Z,11.21
2019-05-10T04:06:54.787Z,11.23
2019-05-10T04:11:58.414Z,11.22
2019-05-10T04:17:01.834Z,11.22
2019-05-10T04:22:05.297Z,11.14
2019-05-10T04:27:08.691Z,11.18
2019-05-10T04:32:12.079Z,11.22
2019-05-10T04:37:15.476Z,11.22
2019-05-10T04:42:18.884Z,11.33
2019-05-10T04:47:22.279Z,11.47
2019-05-10T04:52:25.667Z,11.55
2019-05-10T04:57:29.058Z,11.65
2019-05-10T05:02:32.494Z,11.79
2019-05-10T05:07:35.897Z,11.84
2019-05-10T05:12:39.583Z,11.87
2019-05-10T05:17:43.041Z,11.83
2019-05-10T05:22:46.689Z,11.85
2019-05-10T05:28:06.624Z,11.89
2019-05-10T05:32:57.070Z,11.96
2019-05-10T05:38:00.572Z,12.01
2019-05-10T05:43:08.088Z,12.08
2019-05-10T05:48:09.089Z,12.20
2019-05-10T05:53:12.503Z,12.40
2019-05-10T05:58:25.770Z,12.48
2019-05-10T06:03:27.461Z,12.62
2019-05-10T06:08:29.710Z,12.73
2019-05-10T06:13:32.544Z,12.91
2019-05-10T06:18:36.034Z,13.07
2019-05-10T06:23:39.452Z,13.12
2019-05-10T06:28:58.336Z,13.13
2019-05-10T06:33:48.426Z,13.04
2019-05-10T06:38:51.873Z,13.07
2019-05-10T06:43:55.512Z,13.26
2019-05-10T06:49:07.268Z,13.41
2019-05-10T06:54:04.081Z,13.77
2019-05-10T06:59:13.593Z,13.90
2019-05-10T07:04:12.612Z,13.88
2019-05-10T07:09:16.240Z,13.90
2019-05-10T07:14:25.423Z,13.88
2019-05-10T07:19:28.449Z,13.80
2019-05-10T07:24:29.925Z,14.02
2019-05-10T07:29:42.072Z,14.08
2019-05-10T07:34:38.458Z,14.09
2019-05-10T07:39:41.849Z,14.03
2019-05-10T07:44:46.656Z,14.18
2019-05-10T07:49:50.357Z,14.28
2019-05-10T07:54:53.748Z,14.43
2019-05-10T08:00:02.734Z,14.70
2019-05-10T08:05:04.940Z,14.82
2019-05-10T08:10:08.905Z,14.80
2019-05-10T08:15:12.787Z,14.69
2019-05-10T08:20:33.359Z,14.69
2019-05-10T08:25:23.066Z,14.66
2019-05-10T08:30:51.714Z,14.66
2019-05-10T08:35:54.547Z,14.85
2019-05-10T08:40:54.194Z,15.10
2019-05-10T08:45:58.081Z,15.23
2019-05-10T08:51:05.624Z,15.44
2019-05-10T08:56:07.722Z,15.31
2019-05-10T09:01:20.846Z,15.53
2019-05-10T09:06:17.282Z,15.96
2019-05-10T09:11:23.033Z,16.23
2019-05-10T09:16:29.101Z,16.23
2019-05-10T09:21:32.197Z,16.10
2019-05-10T09:26:35.617Z,15.79
2019-05-10T09:31:39.485Z,15.69
2019-05-10T09:36:47.003Z,15.64
2019-05-10T09:41:52.495Z,15.54
2019-05-10T09:46:54.674Z,15.49
2019-05-10T09:51:58.065Z,15.61
2019-05-10T09:57:01.689Z,15.59
2019-05-10T10:07:10.290Z,15.95
2019-05-10T10:12:13.678Z,16.00
2019-05-10T10:17:20.076Z,15.88
2019-05-10T10:22:22.215Z,16.09
2019-05-10T10:27:34.186Z,16.06
2019-05-10T10:32:34.829Z,16.22
2019-05-10T10:37:37.973Z,16.24
2019-05-10T10:42:41.009Z,16.31
2019-05-10T10:47:47.017Z,16.44
2019-05-10T10:52:49.749Z,16.74
2019-05-10T10:57:53.168Z,16.96
2019-05-10T11:02:56.565Z,17.14
2019-05-10T11:08:01.101Z,17.14
2019-05-10T11:13:11.104Z,17.23
2019-05-10T11:18:09.672Z,17.08
2019-05-10T11:23:16.091Z,17.12
2019-05-10T11:28:20.540Z,17.24
2019-05-10T11:33:29.688Z,17.27
2019-05-10T11:38:28.672Z,17.53
2019-05-10T11:43:32.081Z,17.88
2019-05-10T11:48:37.411Z,17.95
2019-05-10T11:53:41.424Z,17.75
2019-05-10T11:58:52.513Z,17.51
2019-05-10T12:03:50.217Z,17.27
2019-05-10T12:14:02.119Z,17.46
2019-05-10T12:19:14.977Z,17.49
2019-05-10T12:24:29.325Z,17.61
2019-05-10T12:26:00.048Z,17.38
2019-05-10T12:29:17.151Z,18.08
2019-05-10T12:34:20.719Z,17.97
2019-05-10T12:39:24.212Z,17.59
2019-05-10T12:44:27.605Z,17.63
2019-05-10T12:49:31.575Z,17.71
2019-05-10T12:54:34.995Z,17.48
2019-05-10T12:59:38.392Z,17.36
2019-05-10T13:04:41.808Z,17.38
2019-05-10T13:09:49.692Z,17.55
2019-05-10T13:14:52.849Z,17.62
2019-05-10T13:19:58.481Z,17.45
2019-05-10T13:25:00.575Z,17.34
2019-05-10T13:30:05.097Z,17.14
2019-05-10T13:35:08.652Z,17.02
2019-05-10T13:40:12.517Z,16.46
2019-05-10T13:45:16.281Z,16.14
2019-05-10T13:50:20.092Z,16.49
2019-05-10T13:55:23.717Z,16.46
2019-05-10T14:00:33.081Z,16.59
2019-05-10T14:05:32.506Z,16.64
2019-05-10T14:10:36.301Z,16.52
2019-05-10T14:15:39.688Z,16.11
2019-05-10T14:20:43.081Z,15.93
2019-05-10T14:25:46.469Z,16.00
2019-05-10T14:30:57.090Z,15.91
2019-05-10T14:36:00.392Z,16.02
2019-05-10T14:41:03.909Z,16.22
2019-05-10T14:46:05.349Z,16.43
2019-05-10T14:51:10.928Z,17.11
2019-05-10T14:56:15.230Z,17.27
2019-05-10T15:01:18.737Z,17.19
2019-05-10T15:06:22.129Z,17.24
2019-05-10T15:11:26.507Z,17.20
2019-05-10T15:16:31.032Z,17.12
2019-05-10T15:21:34.846Z,17.26
2019-05-10T15:26:44.009Z,17.10
2019-05-10T15:31:43.337Z,16.72
2019-05-10T15:36:46.729Z,16.45
2019-05-10T15:41:53.510Z,16.25
2019-05-10T15:46:55.261Z,16.86
2019-05-10T15:52:16.297Z,17.26
2019-05-10T15:57:03.797Z,16.65
2019-05-10T16:02:07.214Z,16.14
2019-05-10T16:07:14.458Z,16.25
2019-05-10T16:12:15.720Z,16.28
2019-05-10T16:17:23.549Z,16.32
2019-05-10T16:22:25.193Z,16.36
2019-05-10T16:27:33.977Z,16.51
2019-05-10T16:32:36.276Z,16.73
2019-05-10T16:37:39.741Z,16.93
2019-05-10T16:42:43.136Z,17.06
2019-05-10T16:47:46.529Z,17.12
2019-05-10T16:52:50.165Z,17.28
2019-05-10T16:57:53.656Z,17.63
2019-05-10T17:02:57.050Z,17.84
2019-05-10T17:08:00.476Z,17.81
2019-05-10T17:13:05.082Z,17.76
2019-05-10T17:18:10.787Z,17.71
2019-05-10T17:23:14.165Z,18.11
2019-05-10T17:28:17.563Z,18.78
2019-05-10T17:33:20.954Z,19.29
2019-05-10T17:38:24.350Z,19.54
2019-05-10T17:43:27.741Z,19.70
2019-05-10T17:48:31.131Z,19.70
2019-05-10T17:53:34.547Z,19.61
2019-05-10T17:58:37.974Z,19.65
2019-05-10T18:03:41.369Z,19.17
2019-05-10T18:08:44.760Z,18.81
2019-05-10T18:13:48.156Z,18.64
2019-05-10T18:18:51.567Z,18.36
2019-05-10T18:23:58.141Z,17.98
2019-05-10T18:29:00.109Z,17.27
2019-05-10T18:34:03.493Z,16.73
2019-05-10T18:39:09.228Z,16.29
2019-05-10T18:44:14.564Z,16.08
2019-05-10T18:49:18.460Z,15.92
2019-05-10T18:54:21.848Z,15.49
2019-05-10T18:59:25.277Z,15.20
2019-05-10T19:04:28.715Z,14.76
2019-05-10T19:09:32.857Z,14.27
2019-05-10T19:14:36.248Z,14.18
2019-05-10T19:19:42.180Z,13.97
2019-05-10T19:24:45.050Z,13.90
2019-05-10T19:29:49.053Z,13.88
2019-05-10T19:34:57.378Z,13.78
2019-05-10T19:39:57.567Z,13.63
2019-05-10T19:45:00.967Z,13.61
2019-05-10T19:50:06.293Z,13.58
2019-05-10T19:55:13.163Z,13.42
2019-05-10T20:00:15.117Z,13.49
2019-05-10T20:05:18.514Z,13.44
2019-05-10T20:10:21.914Z,13.18
2019-05-10T20:15:25.321Z,13.08
2019-05-10T20:20:28.712Z,12.87
2019-05-10T20:25:32.104Z,12.83
2019-05-10T20:30:35.524Z,12.87
2019-05-10T20:35:38.944Z,12.57
2019-05-10T20:40:42.364Z,12.37
2019-05-10T20:45:45.993Z,12.25
2019-05-10T20:50:49.416Z,12.09
2019-05-10T20:55:52.809Z,12.02
2019-05-10T21:00:56.201Z,12.04
2019-05-10T21:05:59.617Z,11.77
2019-05-10T21:11:03.083Z,11.69
2019-05-10T21:16:06.430Z,11.59
2019-05-10T21:21:09.820Z,11.36
2019-05-10T21:26:13.212Z,11.17
2019-05-10T21:31:16.609Z,11.17
2019-05-10T21:36:20.246Z,11.33
2019-05-10T21:41:23.651Z,11.57
2019-05-10T21:46:27.341Z,11.66
2019-05-10T21:51:30.774Z,11.77
2019-05-10T21:56:35.999Z,11.97
2019-05-10T22:01:39.415Z,12.00
2019-05-10T22:06:42.865Z,11.83
2019-05-10T22:11:46.312Z,11.82
2019-05-10T22:16:49.735Z,12.02
2019-05-10T22:21:55.390Z,12.18
2019-05-10T22:26:58.349Z,12.28
2019-05-10T22:32:01.784Z,12.45
2019-05-10T22:37:05.218Z,12.60
2019-05-10T22:42:08.641Z,12.71
2019-05-10T22:47:12.077Z,12.78
2019-05-10T22:52:15.532Z,12.68
2019-05-10T22:57:19.271Z,12.75
2019-05-10T23:02:22.729Z,12.65
2019-05-10T23:07:26.167Z,12.50
2019-05-10T23:12:29.632Z,12.58
2019-05-10T23:17:33.068Z,12.66
2019-05-10T23:22:36.511Z,12.50
2019-05-10T23:27:39.945Z,12.27
2019-05-10T23:32:43.373Z,12.17
2019-05-10T23:37:47.058Z,11.95
2019-05-10T23:42:50.779Z,12.01
2019-05-10T23:47:54.209Z,11.95
2019-05-10T23:52:57.642Z,12.04
2019-05-10T23:58:01.100Z,12.16
